Time;durP1;ratioP1;P1;durP2;ratioP2;P2;SDS_P1;SDS_P2;PMS_P1;PMS_P2;Temp;Humidity;BMP_temperature;BMP_pressure;BME280_temperature;BME280_humidity;BME280_pressure;Samples;Min_cycle;Max_cycle;Signal;HPM_P1;HPM_P2
2022/08/28 00:00:24;;;;;;;9.63;7.68;;;19.60;99.90;;;;;;5001671;28;20073;-84
2022/08/28 00:02:52;;;;;;;9.27;7.10;;;19.60;99.90;;;;;;5021038;28;20050;-81
2022/08/28 00:05:20;;;;;;;12.82;7.97;;;19.50;99.90;;;;;;5020465;28;20061;-80
2022/08/28 00:07:46;;;;;;;12.15;7.65;;;19.50;99.90;;;;;;5019346;28;20096;-80
2022/08/28 00:10:15;;;;;;;12.00;7.93;;;19.60;99.90;;;;;;5015653;28;20531;-80
2022/08/28 00:12:43;;;;;;;11.55;8.18;;;19.50;99.90;;;;;;5013315;28;20058;-82
2022/08/28 00:15:18;;;;;;;13.23;7.80;;;19.50;99.90;;;;;;5015732;28;20093;-81
2022/08/28 00:17:45;;;;;;;11.07;8.15;;;19.50;99.90;;;;;;5015216;28;20085;-81
2022/08/28 00:20:14;;;;;;;12.68;6.90;;;19.40;99.90;;;;;;5016180;28;20077;-82
2022/08/28 00:22:41;;;;;;;12.23;7.78;;;19.40;99.90;;;;;;5017945;28;20073;-81
2022/08/28 00:25:10;;;;;;;11.38;8.02;;;19.30;99.90;;;;;;5019301;28;20092;-82
2022/08/28 00:27:52;;;;;;;11.40;8.43;;;19.40;99.90;;;;;;5016512;28;20132;-80
2022/08/28 00:30:30;;;;;;;13.48;8.05;;;19.40;99.90;;;;;;4997687;28;20053;-83
2022/08/28 00:33:01;;;;;;;12.52;8.65;;;19.30;99.90;;;;;;5003091;28;20093;-81
2022/08/28 00:35:28;;;;;;;12.05;7.80;;;19.30;99.90;;;;;;5001511;28;20074;-80
2022/08/28 00:37:56;;;;;;;13.57;8.40;;;19.30;99.90;;;;;;5004603;28;20566;-82
2022/08/28 00:40:27;;;;;;;9.82;7.78;;;19.30;99.90;;;;;;5016386;28;20054;-84
2022/08/28 00:43:01;;;;;;;11.45;7.80;;;19.30;99.90;;;;;;4996589;28;20082;-82
2022/08/28 00:45:29;;;;;;;9.35;7.70;;;19.30;99.90;;;;;;5014192;28;20148;-82
2022/08/28 00:47:57;;;;;;;11.90;8.15;;;19.30;99.90;;;;;;5011623;28;20133;-82
2022/08/28 00:50:27;;;;;;;12.00;8.32;;;19.20;99.90;;;;;;5019723;28;20050;-83
2022/08/28 00:52:59;;;;;;;10.30;8.18;;;19.20;99.90;;;;;;5016092;28;20050;-82
2022/08/28 00:55:27;;;;;;;15.48;8.90;;;19.20;99.90;;;;;;5011404;28;20120;-80
2022/08/28 00:57:57;;;;;;;12.40;7.70;;;19.20;99.90;;;;;;5002557;28;20050;-81
2022/08/28 01:00:33;;;;;;;12.32;8.68;;;19.50;99.90;;;;;;5000053;28;20050;-83
2022/08/28 01:03:01;;;;;;;12.32;8.32;;;19.20;99.90;;;;;;4999649;28;20085;-80
2022/08/28 01:05:28;;;;;;;11.98;9.05;;;19.10;99.90;;;;;;5002359;28;20085;-80
2022/08/28 01:07:58;;;;;;;12.10;8.57;;;19.10;99.90;;;;;;4999395;28;20128;-81
2022/08/28 01:10:28;;;;;;;13.93;8.85;;;19.00;99.90;;;;;;4999082;28;20125;-81
2022/08/28 01:12:57;;;;;;;11.02;8.73;;;19.00;99.90;;;;;;4986828;28;20088;-82
2022/08/28 01:15:28;;;;;;;12.88;9.38;;;19.10;99.90;;;;;;4999162;28;20056;-81
2022/08/28 01:17:59;;;;;;;14.73;9.07;;;19.10;99.90;;;;;;4982282;28;20105;-82
2022/08/28 01:20:36;;;;;;;16.27;8.60;;;19.00;99.90;;;;;;5007352;28;20050;-82
2022/08/28 01:23:19;;;;;;;9.93;8.25;;;19.00;99.90;;;;;;5001388;28;20106;-80
2022/08/28 01:25:45;;;;;;;9.98;7.40;;;19.00;99.90;;;;;;5002690;28;20511;-82
2022/08/28 01:28:13;;;;;;;10.40;7.22;;;19.00;99.90;;;;;;5018075;28;20061;-80
2022/08/28 01:30:44;;;;;;;11.98;7.25;;;19.00;99.90;;;;;;5015974;28;20061;-80
2022/08/28 01:33:13;;;;;;;12.57;7.72;;;19.00;99.90;;;;;;5016308;28;20073;-80
2022/08/28 01:35:43;;;;;;;12.23;7.30;;;19.00;99.90;;;;;;5012684;28;20125;-82
2022/08/28 01:38:10;;;;;;;13.15;7.25;;;18.90;99.90;;;;;;5009483;28;20077;-80
2022/08/28 01:40:40;;;;;;;9.35;7.03;;;19.00;99.90;;;;;;5006502;28;20046;-82
2022/08/28 01:43:17;;;;;;;12.35;8.10;;;19.00;99.90;;;;;;5005853;28;20081;-83
2022/08/28 01:45:47;;;;;;;9.73;7.20;;;19.00;99.90;;;;;;4997625;28;20112;-81
2022/08/28 01:48:15;;;;;;;12.43;8.07;;;19.00;99.90;;;;;;5008242;28;20077;-80
2022/08/28 01:50:42;;;;;;;9.52;7.88;;;19.00;99.90;;;;;;4999798;28;20793;-81
2022/08/28 01:53:13;;;;;;;12.23;7.40;;;19.00;99.90;;;;;;5000276;28;20057;-80
2022/08/28 01:55:41;;;;;;;11.40;8.15;;;19.00;99.90;;;;;;5014014;28;20123;-82
2022/08/28 01:58:09;;;;;;;13.23;8.35;;;19.00;99.90;;;;;;5014503;28;20077;-80
2022/08/28 02:00:37;;;;;;;13.10;8.60;;;19.00;99.90;;;;;;5006229;28;20047;-82
2022/08/28 02:03:05;;;;;;;11.48;8.68;;;19.00;99.90;;;;;;4999321;28;20050;-81
2022/08/28 02:05:33;;;;;;;16.63;10.38;;;19.00;99.90;;;;;;4998996;28;20128;-83
2022/08/28 02:08:02;;;;;;;21.73;11.85;;;19.10;99.90;;;;;;5005561;28;20110;-82
2022/08/28 02:10:32;;;;;;;16.17;11.10;;;19.10;99.90;;;;;;5005858;28;20088;-81
2022/08/28 02:12:59;;;;;;;19.15;11.80;;;19.10;99.90;;;;;;5005674;28;20056;-81
2022/08/28 02:15:28;;;;;;;22.77;11.93;;;19.10;99.90;;;;;;5006681;28;20088;-81
2022/08/28 02:17:55;;;;;;;16.35;10.10;;;19.20;99.90;;;;;;5006587;28;20046;-84
2022/08/28 02:20:23;;;;;;;19.27;9.80;;;19.20;99.90;;;;;;5005647;28;20078;-81
2022/08/28 02:22:50;;;;;;;15.43;9.40;;;19.10;99.90;;;;;;5006472;28;20042;-81
2022/08/28 02:25:17;;;;;;;14.98;9.73;;;19.10;99.90;;;;;;5005245;28;20050;-82
2022/08/28 02:27:44;;;;;;;16.80;11.07;;;19.10;99.90;;;;;;5004300;28;20061;-80
2022/08/28 02:30:13;;;;;;;13.38;10.63;;;19.20;99.90;;;;;;5005652;28;20081;-83
2022/08/28 02:32:40;;;;;;;10.88;9.18;;;19.20;99.90;;;;;;5010606;28;20093;-81
2022/08/28 02:35:11;;;;;;;18.98;11.25;;;19.20;99.90;;;;;;5005771;28;20056;-81
2022/08/28 02:37:41;;;;;;;16.30;11.52;;;19.20;99.90;;;;;;4989168;28;20070;-82
2022/08/28 02:40:09;;;;;;;20.58;11.65;;;19.20;99.90;;;;;;5006979;28;20129;-81
2022/08/28 02:42:36;;;;;;;20.80;12.50;;;19.20;99.90;;;;;;5008792;28;20168;-84
2022/08/28 02:45:03;;;;;;;18.17;12.32;;;19.10;99.90;;;;;;5009962;28;20182;-80
2022/08/28 02:47:30;;;;;;;21.63;13.82;;;19.10;99.90;;;;;;4999598;28;20090;-82
2022/08/28 02:49:57;;;;;;;21.13;13.15;;;19.20;99.90;;;;;;4999423;28;20133;-82
2022/08/28 02:52:24;;;;;;;15.85;12.07;;;19.20;99.90;;;;;;5007811;28;20089;-80
2022/08/28 02:54:50;;;;;;;17.60;12.23;;;19.10;99.90;;;;;;5009797;28;20118;-83
2022/08/28 02:57:17;;;;;;;17.23;11.88;;;19.10;99.90;;;;;;4992395;28;20046;-82
2022/08/28 02:59:46;;;;;;;14.20;11.25;;;19.10;99.90;;;;;;5010225;28;20057;-82
2022/08/28 03:02:13;;;;;;;15.00;10.18;;;19.00;99.90;;;;;;5010417;28;20084;-83
2022/08/28 03:04:40;;;;;;;20.33;9.75;;;19.10;99.90;;;;;;5000273;28;20054;-83
2022/08/28 03:07:08;;;;;;;12.05;9.50;;;19.00;99.90;;;;;;5000131;28;20123;-81
2022/08/28 03:09:36;;;;;;;18.48;9.65;;;19.00;99.90;;;;;;5007116;28;20061;-80
2022/08/28 03:12:03;;;;;;;15.70;10.45;;;19.00;99.90;;;;;;5007097;28;20090;-82
2022/08/28 03:14:30;;;;;;;12.63;9.52;;;18.90;99.90;;;;;;5004646;28;20054;-81
2022/08/28 03:16:57;;;;;;;13.32;9.10;;;18.80;99.90;;;;;;5003562;28;20073;-81
2022/08/28 03:19:23;;;;;;;11.90;9.30;;;18.80;99.90;;;;;;5004024;28;20062;-82
2022/08/28 03:21:52;;;;;;;14.68;8.90;;;18.70;99.90;;;;;;5007484;28;20492;-81
2022/08/28 03:24:19;;;;;;;11.35;9.55;;;18.60;99.90;;;;;;5006436;28;20550;-81
2022/08/28 03:26:46;;;;;;;12.85;9.27;;;18.60;99.90;;;;;;4998256;28;20109;-83
2022/08/28 03:29:13;;;;;;;11.77;8.63;;;18.60;99.90;;;;;;5007934;28;20073;-81
2022/08/28 03:31:39;;;;;;;12.40;7.72;;;18.60;99.90;;;;;;5009941;28;20452;-80
2022/08/28 03:34:06;;;;;;;12.20;8.50;;;18.60;99.90;;;;;;5008847;28;20054;-81
2022/08/28 03:36:33;;;;;;;11.82;8.77;;;18.50;99.90;;;;;;5005807;28;20563;-83
2022/08/28 03:39:03;;;;;;;10.02;8.63;;;18.50;99.90;;;;;;5015255;28;20206;-80
2022/08/28 03:41:31;;;;;;;9.43;7.75;;;18.40;99.90;;;;;;5000648;28;20086;-81
2022/08/28 03:43:59;;;;;;;13.93;8.85;;;18.40;99.90;;;;;;5013549;28;20125;-81
2022/08/28 03:46:28;;;;;;;8.80;7.82;;;18.30;99.90;;;;;;5011891;28;20482;-81
2022/08/28 03:48:55;;;;;;;11.23;8.68;;;18.30;99.90;;;;;;5013698;28;20057;-83
2022/08/28 03:51:25;;;;;;;17.40;8.18;;;18.30;99.90;;;;;;5013975;28;20088;-82
2022/08/28 03:53:57;;;;;;;18.80;9.70;;;18.20;99.90;;;;;;5005863;28;20060;-82
2022/08/28 03:56:26;;;;;;;11.65;8.27;;;18.20;99.90;;;;;;5007952;28;20081;-81
2022/08/28 03:58:56;;;;;;;13.90;7.90;;;18.20;99.90;;;;;;5006292;28;20126;-80
2022/08/28 04:01:23;;;;;;;11.75;8.35;;;18.20;99.90;;;;;;5005786;28;20049;-80
2022/08/28 04:03:50;;;;;;;14.20;9.85;;;18.20;99.90;;;;;;5001538;28;20057;-80
2022/08/28 04:06:18;;;;;;;19.08;11.10;;;18.10;99.90;;;;;;5014477;28;20077;-82
2022/08/28 04:08:46;;;;;;;15.27;10.25;;;18.10;99.90;;;;;;5012590;28;20058;-81
2022/08/28 04:11:12;;;;;;;15.10;10.85;;;18.10;99.90;;;;;;5016410;28;20073;-81
2022/08/28 04:13:40;;;;;;;17.73;9.30;;;18.00;99.90;;;;;;5019335;28;20484;-81
2022/08/28 04:16:10;;;;;;;14.63;9.70;;;18.00;99.90;;;;;;5005721;28;20119;-81
2022/08/28 04:18:39;;;;;;;14.38;9.98;;;18.00;99.90;;;;;;5013683;28;20042;-81
2022/08/28 04:21:10;;;;;;;11.45;7.90;;;18.00;99.90;;;;;;5011045;28;20069;-81
2022/08/28 04:23:38;;;;;;;11.98;8.05;;;18.00;99.90;;;;;;5010210;28;20477;-79
2022/08/28 04:26:06;;;;;;;13.05;8.45;;;18.00;99.90;;;;;;5005107;28;20050;-81
2022/08/28 04:28:34;;;;;;;9.75;7.88;;;17.90;99.90;;;;;;5013604;28;20061;-81
2022/08/28 04:31:01;;;;;;;11.95;7.78;;;18.00;99.90;;;;;;5018110;28;20113;-82
2022/08/28 04:33:28;;;;;;;10.18;7.03;;;18.00;99.90;;;;;;5019726;28;20058;-82
2022/08/28 04:35:56;;;;;;;9.68;7.13;;;17.90;99.90;;;;;;5019311;28;20061;-82
2022/08/28 04:38:22;;;;;;;13.45;7.90;;;18.00;99.90;;;;;;5014613;28;20042;-82
2022/08/28 04:40:49;;;;;;;12.10;7.28;;;18.00;99.90;;;;;;5019378;28;20101;-80
2022/08/28 04:43:16;;;;;;;10.05;7.32;;;18.00;99.90;;;;;;5019411;28;20603;-83
2022/08/28 04:45:44;;;;;;;9.30;7.03;;;18.00;99.90;;;;;;5013565;28;20045;-81
2022/08/28 04:48:12;;;;;;;13.13;7.80;;;18.00;99.90;;;;;;5016816;28;20493;-82
2022/08/28 04:50:44;;;;;;;10.02;6.85;;;17.90;99.90;;;;;;5015548;28;20054;-80
2022/08/28 04:53:12;;;;;;;9.55;6.60;;;17.90;99.90;;;;;;5016652;28;20753;-80
2022/08/28 04:55:50;;;;;;;13.23;7.40;;;17.90;99.90;;;;;;5012701;28;20119;-81
2022/08/28 04:58:20;;;;;;;12.60;7.78;;;18.00;99.90;;;;;;4998299;28;20082;-80
2022/08/28 05:00:51;;;;;;;12.05;7.07;;;17.90;99.90;;;;;;4997077;28;20047;-81
2022/08/28 05:03:18;;;;;;;10.82;6.45;;;17.90;99.90;;;;;;5001386;28;20073;-81
2022/08/28 05:05:47;;;;;;;11.73;7.00;;;17.90;99.90;;;;;;5002235;28;20134;-81
2022/08/28 05:08:16;;;;;;;10.05;7.25;;;17.90;99.90;;;;;;4997820;28;20153;-80
2022/08/28 05:10:43;;;;;;;10.30;7.30;;;17.90;99.90;;;;;;4999374;28;20050;-81
2022/08/28 05:13:10;;;;;;;9.20;7.28;;;17.80;99.90;;;;;;5008337;28;20129;-82
2022/08/28 05:15:39;;;;;;;9.23;6.97;;;17.80;99.90;;;;;;5000134;28;20086;-80
2022/08/28 05:18:05;;;;;;;9.60;7.15;;;17.80;99.90;;;;;;5001204;28;20050;-81
2022/08/28 05:20:37;;;;;;;12.15;7.47;;;17.80;99.90;;;;;;4987678;28;20238;-83
2022/08/28 05:23:08;;;;;;;12.43;6.45;;;17.80;99.90;;;;;;5005054;28;20212;-81
2022/08/28 05:25:36;;;;;;;9.00;6.93;;;17.80;99.90;;;;;;5002602;28;20050;-83
2022/08/28 05:28:04;;;;;;;9.27;6.82;;;17.80;99.90;;;;;;5007163;28;20081;-81
2022/08/28 05:30:36;;;;;;;11.85;7.45;;;17.90;99.90;;;;;;4998049;28;20116;-81
2022/08/28 05:33:04;;;;;;;10.80;6.47;;;17.90;99.90;;;;;;4998533;28;20085;-81
2022/08/28 05:35:37;;;;;;;8.57;6.90;;;17.90;99.90;;;;;;5006861;28;20058;-82
2022/08/28 05:38:05;;;;;;;10.45;6.68;;;17.90;99.90;;;;;;5003819;28;20042;-80
2022/08/28 05:40:32;;;;;;;10.40;7.63;;;18.00;99.90;;;;;;5004490;28;20500;-81
2022/08/28 05:42:59;;;;;;;8.80;7.20;;;17.90;99.90;;;;;;5000764;28;20046;-80
2022/08/28 05:45:26;;;;;;;12.32;7.22;;;18.00;99.90;;;;;;4999088;28;20733;-80
2022/08/28 05:47:52;;;;;;;10.10;7.75;;;18.00;99.90;;;;;;5001133;28;20054;-80
2022/08/28 05:50:19;;;;;;;8.68;6.75;;;18.10;99.90;;;;;;5004358;28;20058;-80
2022/08/28 05:52:46;;;;;;;9.63;7.50;;;18.10;99.90;;;;;;4990059;28;20054;-82
2022/08/28 05:55:13;;;;;;;11.80;8.50;;;18.20;99.90;;;;;;5006496;28;20042;-80
2022/08/28 05:57:40;;;;;;;10.10;8.68;;;18.20;99.90;;;;;;5003784;28;20085;-80
2022/08/28 06:00:12;;;;;;;11.57;7.55;;;18.30;99.90;;;;;;5001655;28;20085;-80
2022/08/28 06:02:40;;;;;;;10.10;8.48;;;18.30;99.90;;;;;;4996301;28;20050;-81
2022/08/28 06:05:08;;;;;;;11.23;8.75;;;18.40;99.90;;;;;;4997414;28;20057;-81
2022/08/28 06:07:39;;;;;;;12.13;8.73;;;18.40;99.90;;;;;;5002804;28;20120;-82
2022/08/28 06:10:07;;;;;;;11.35;8.35;;;18.40;99.90;;;;;;5004044;28;20081;-81
2022/08/28 06:12:36;;;;;;;10.38;8.07;;;18.50;99.90;;;;;;5010525;28;20065;-80
2022/08/28 06:15:04;;;;;;;10.40;8.00;;;18.60;99.90;;;;;;5010190;28;20081;-80
2022/08/28 06:17:31;;;;;;;10.15;7.70;;;18.60;99.90;;;;;;5002211;28;20093;-80
2022/08/28 06:19:58;;;;;;;10.23;7.60;;;18.80;99.90;;;;;;5005418;28;20101;-82
2022/08/28 06:22:24;;;;;;;8.70;7.38;;;18.90;99.90;;;;;;5006997;28;20049;-82
2022/08/28 06:24:52;;;;;;;10.10;8.70;;;19.00;99.90;;;;;;5005258;28;20089;-80
2022/08/28 06:27:19;;;;;;;20.00;12.90;;;19.10;99.90;;;;;;5004209;28;20046;-80
2022/08/28 06:29:46;;;;;;;19.00;14.32;;;19.10;99.90;;;;;;5003158;28;20415;-81
2022/08/28 06:32:12;;;;;;;17.30;12.43;;;19.20;99.90;;;;;;5004659;28;20074;-82
2022/08/28 06:34:39;;;;;;;16.95;11.95;;;19.20;99.90;;;;;;5004681;28;20050;-80
2022/08/28 06:37:06;;;;;;;14.48;12.07;;;19.30;99.90;;;;;;4998354;28;20129;-82
2022/08/28 06:39:33;;;;;;;15.15;12.95;;;19.20;99.90;;;;;;4998731;28;20575;-81
2022/08/28 06:42:00;;;;;;;20.05;15.02;;;19.30;99.90;;;;;;4998670;28;20413;-82
2022/08/28 06:44:27;;;;;;;19.42;15.77;;;19.40;99.90;;;;;;5003297;28;20092;-83
2022/08/28 06:46:54;;;;;;;19.45;15.93;;;19.50;99.90;;;;;;5009348;28;20106;-82
2022/08/28 06:49:21;;;;;;;18.92;15.10;;;19.50;99.90;;;;;;5009434;28;20101;-83
2022/08/28 06:51:48;;;;;;;17.95;13.27;;;19.60;99.90;;;;;;5009302;28;20046;-81
2022/08/28 06:54:16;;;;;;;26.25;14.20;;;19.60;99.90;;;;;;5010895;28;20054;-82
2022/08/28 06:56:49;;;;;;;18.30;13.32;;;19.70;99.90;;;;;;5009132;28;20048;-82
2022/08/28 06:59:16;;;;;;;20.88;14.27;;;19.90;99.90;;;;;;5010959;28;20047;-81
2022/08/28 07:01:43;;;;;;;17.33;14.40;;;20.00;99.90;;;;;;5010359;28;20116;-82
2022/08/28 07:04:11;;;;;;;22.45;16.27;;;20.00;99.90;;;;;;5010891;28;20057;-83
2022/08/28 07:06:40;;;;;;;21.60;17.40;;;20.00;99.90;;;;;;5015507;28;20046;-82
2022/08/28 07:09:09;;;;;;;23.27;17.08;;;20.00;99.90;;;;;;5014842;28;20117;-82
2022/08/28 07:11:37;;;;;;;23.38;17.25;;;20.00;99.90;;;;;;5012935;28;20084;-82
2022/08/28 07:14:05;;;;;;;25.10;17.90;;;19.90;99.90;;;;;;5017288;28;20096;-83
2022/08/28 07:16:36;;;;;;;23.05;17.50;;;19.60;99.90;;;;;;5013813;28;20053;-82
2022/08/28 07:19:05;;;;;;;23.88;18.52;;;19.60;99.90;;;;;;5017492;28;20053;-82
2022/08/28 07:21:37;;;;;;;23.80;18.83;;;19.40;99.90;;;;;;5005563;28;20456;-81
2022/08/28 07:24:06;;;;;;;24.42;18.60;;;19.40;99.90;;;;;;5015681;28;20616;-82
2022/08/28 07:26:34;;;;;;;25.60;18.52;;;19.50;99.90;;;;;;5010728;28;20043;-82
2022/08/28 07:29:03;;;;;;;23.95;18.38;;;19.50;99.90;;;;;;5017115;28;20062;-84
2022/08/28 07:31:41;;;;;;;23.55;18.75;;;19.60;99.90;;;;;;5012706;28;20567;-84
2022/08/28 07:34:10;;;;;;;23.35;18.23;;;19.70;99.90;;;;;;5015844;28;20050;-83
2022/08/28 07:36:38;;;;;;;24.95;18.05;;;20.10;99.90;;;;;;5011604;28;20125;-82
2022/08/28 07:39:07;;;;;;;23.33;16.63;;;20.00;99.90;;;;;;5011625;28;20050;-80
2022/08/28 07:41:37;;;;;;;20.15;15.57;;;20.10;99.90;;;;;;5011500;28;20077;-84
2022/08/28 07:46:56;;;;;;;25.73;17.83;;;20.40;99.90;;;;;;5013828;28;20072;-82
2022/08/28 07:49:24;;;;;;;17.77;15.70;;;20.50;99.90;;;;;;5008379;28;20046;-82
2022/08/28 07:51:50;;;;;;;18.25;15.90;;;20.60;99.90;;;;;;5001666;28;20052;-82
2022/08/28 07:54:20;;;;;;;20.48;16.70;;;20.70;99.90;;;;;;5012715;28;20074;-82
2022/08/28 07:56:47;;;;;;;19.33;14.82;;;20.80;99.90;;;;;;5010906;28;20062;-82
2022/08/28 07:59:15;;;;;;;17.63;14.57;;;20.90;99.90;;;;;;5013131;28;20092;-82
2022/08/28 08:01:46;;;;;;;17.75;15.60;;;21.00;99.90;;;;;;5016097;28;20052;-82
2022/08/28 08:04:15;;;;;;;18.60;15.43;;;21.10;99.90;;;;;;5010072;28;20049;-82
2022/08/28 08:06:42;;;;;;;18.25;15.45;;;21.20;99.90;;;;;;5006819;28;20051;-82
2022/08/28 08:09:11;;;;;;;19.63;16.63;;;21.30;99.90;;;;;;5010402;28;20082;-84
2022/08/28 08:11:38;;;;;;;19.15;15.48;;;21.40;99.90;;;;;;5015327;28;20052;-82
2022/08/28 08:14:06;;;;;;;20.73;15.55;;;21.40;99.90;;;;;;5013593;28;20085;-82
2022/08/28 08:16:37;;;;;;;18.67;15.35;;;21.60;99.90;;;;;;5010256;28;20077;-82
2022/08/28 08:19:05;;;;;;;16.08;14.25;;;21.70;99.90;;;;;;5012099;28;20077;-83
2022/08/28 08:21:31;;;;;;;19.70;15.52;;;21.80;99.90;;;;;;5005538;28;20129;-82
2022/08/28 08:23:58;;;;;;;19.60;15.43;;;21.80;99.90;;;;;;5015932;28;20121;-82
2022/08/28 08:26:26;;;;;;;23.40;15.32;;;21.90;99.90;;;;;;5005896;28;20149;-82
2022/08/28 08:28:55;;;;;;;17.95;14.82;;;21.90;99.90;;;;;;5012066;28;20515;-82
2022/08/28 08:31:33;;;;;;;19.52;14.48;;;22.00;99.90;;;;;;5009788;28;20108;-82
2022/08/28 08:34:03;;;;;;;16.70;14.93;;;22.10;99.90;;;;;;5010437;28;20088;-83
2022/08/28 08:36:31;;;;;;;17.33;14.60;;;22.30;99.90;;;;;;5006804;28;20496;-82
2022/08/28 08:38:59;;;;;;;21.00;14.18;;;22.30;99.90;;;;;;5009455;28;20561;-82
2022/08/28 08:41:50;;;;;;;19.45;15.60;;;22.30;99.90;;;;;;5007070;28;20047;-82
2022/08/28 08:44:37;;;;;;;17.35;14.57;;;22.40;99.90;;;;;;5015265;28;20100;-80
2022/08/28 08:47:18;;;;;;;18.80;15.52;;;22.30;99.90;;;;;;5008906;28;20508;-81
2022/08/28 08:49:54;;;;;;;19.23;15.55;;;22.20;99.90;;;;;;5005942;28;20046;-82
2022/08/28 08:52:51;;;;;;;19.92;15.73;;;22.10;99.90;;;;;;5006855;28;20050;-81
2022/08/28 08:55:34;;;;;;;18.63;15.18;;;22.00;99.90;;;;;;5008103;28;20068;-81
2022/08/28 08:58:09;;;;;;;19.17;14.15;;;21.90;99.90;;;;;;5005695;28;20054;-80
2022/08/28 09:00:58;;;;;;;21.70;14.35;;;21.90;99.90;;;;;;5005208;28;20065;-82
2022/08/28 09:03:46;;;;;;;23.33;15.15;;;22.00;99.90;;;;;;5005375;28;20042;-81
2022/08/28 09:06:38;;;;;;;18.08;15.38;;;22.00;99.90;;;;;;5009059;28;20037;-80
2022/08/28 09:09:13;;;;;;;19.25;14.32;;;22.00;99.90;;;;;;5005324;28;20113;-81
2022/08/28 09:12:02;;;;;;;20.85;15.95;;;22.00;99.90;;;;;;5011789;28;20085;-79
2022/08/28 09:14:47;;;;;;;21.35;16.98;;;22.10;99.90;;;;;;5004521;28;20053;-80
2022/08/28 09:17:18;;;;;;;18.52;15.40;;;22.20;99.90;;;;;;5012726;28;20046;-80
2022/08/28 09:19:45;;;;;;;19.27;16.02;;;22.30;99.90;;;;;;5004935;28;20088;-81
2022/08/28 09:22:12;;;;;;;17.92;14.50;;;22.30;99.90;;;;;;5009711;28;20085;-81
2022/08/28 09:24:40;;;;;;;26.23;15.68;;;22.30;99.90;;;;;;5008880;28;20053;-80
2022/08/28 09:27:21;;;;;;;19.17;15.32;;;22.40;99.90;;;;;;5009442;28;20423;-81
2022/08/28 09:30:04;;;;;;;19.23;16.20;;;22.40;99.90;;;;;;4997228;28;20114;-82
2022/08/28 09:32:43;;;;;;;21.67;15.07;;;22.30;99.90;;;;;;5008162;28;20129;-81
2022/08/28 09:35:28;;;;;;;22.23;16.88;;;22.40;99.90;;;;;;5006579;28;20160;-82
2022/08/28 09:38:22;;;;;;;22.75;17.25;;;22.30;99.90;;;;;;5011872;28;20057;-81
2022/08/28 09:43:55;;;;;;;21.98;17.73;;;22.10;99.90;;;;;;5009836;28;20185;-81
2022/08/28 09:46:28;;;;;;;21.75;17.70;;;21.90;99.90;;;;;;5010996;28;20062;-80
2022/08/28 09:49:13;;;;;;;20.48;16.92;;;21.80;99.90;;;;;;5008799;28;20046;-81
2022/08/28 09:51:40;;;;;;;22.80;17.45;;;21.90;99.90;;;;;;5009670;28;20519;-82
2022/08/28 09:54:35;;;;;;;18.67;15.43;;;21.90;99.90;;;;;;5012266;28;20049;-82
2022/08/28 09:57:02;;;;;;;17.55;15.02;;;22.00;99.90;;;;;;5009134;28;20050;-81
2022/08/28 09:59:29;;;;;;;19.08;15.80;;;22.10;99.90;;;;;;4996186;28;20046;-83
2022/08/28 10:02:23;;;;;;;20.98;16.70;;;22.10;99.90;;;;;;5012469;28;20065;-83
2022/08/28 10:05:09;;;;;;;20.75;16.67;;;22.10;99.90;;;;;;5009273;28;20045;-81
2022/08/28 10:07:51;;;;;;;20.48;15.88;;;22.00;99.90;;;;;;5007172;28;20473;-81
2022/08/28 10:10:39;;;;;;;18.73;16.27;;;22.00;99.90;;;;;;5005892;28;20067;-82
2022/08/28 10:13:29;;;;;;;20.40;15.82;;;22.00;99.90;;;;;;5001367;28;20565;-80
2022/08/28 10:16:25;;;;;;;20.27;15.38;;;22.00;99.90;;;;;;5006849;28;20221;-79
2022/08/28 10:19:16;;;;;;;18.75;15.57;;;22.10;99.90;;;;;;5006714;28;20043;-79
2022/08/28 10:21:56;;;;;;;20.15;14.05;;;22.20;99.90;;;;;;5006281;28;20140;-79
2022/08/28 10:24:41;;;;;;;18.17;14.35;;;22.30;99.90;;;;;;5003154;28;20129;-82
2022/08/28 10:27:49;;;;;;;19.88;14.90;;;22.40;99.90;;;;;;5001568;28;20076;-80
2022/08/28 10:30:21;;;;;;;17.48;12.80;;;22.60;99.90;;;;;;4999553;28;20042;-79
2022/08/28 10:33:13;;;;;;;19.77;15.00;;;22.80;99.90;;;;;;4993001;28;20089;-80
2022/08/28 10:36:02;;;;;;;15.50;13.90;;;22.90;99.90;;;;;;5000957;28;20111;-80
2022/08/28 10:38:37;;;;;;;17.80;14.13;;;23.00;99.90;;;;;;5001151;28;20128;-80
2022/08/28 10:41:10;;;;;;;14.40;11.45;;;22.90;99.90;;;;;;5003169;28;20089;-81
2022/08/28 10:43:45;;;;;;;17.15;13.05;;;22.90;99.90;;;;;;4986907;28;20129;-80
2022/08/28 10:46:23;;;;;;;13.27;11.52;;;22.80;99.90;;;;;;4994366;28;20081;-80
2022/08/28 10:49:05;;;;;;;14.30;12.10;;;22.90;99.90;;;;;;5004776;28;20158;-80
2022/08/28 10:51:35;;;;;;;14.60;12.55;;;23.00;99.90;;;;;;4991891;28;20082;-81
2022/08/28 10:54:24;;;;;;;13.07;10.90;;;23.10;99.90;;;;;;4991347;28;20052;-80
2022/08/28 10:57:16;;;;;;;13.05;8.93;;;23.20;99.90;;;;;;5007027;28;20046;-80
2022/08/28 10:59:47;;;;;;;10.98;9.85;;;23.20;99.90;;;;;;5001537;28;20073;-80
2022/08/28 11:02:18;;;;;;;11.63;10.43;;;23.20;99.90;;;;;;4998257;28;20126;-80
2022/08/28 11:04:46;;;;;;;11.52;8.93;;;23.30;99.90;;;;;;5004813;28;20064;-80
2022/08/28 11:07:22;;;;;;;12.23;9.98;;;23.40;99.90;;;;;;5007758;28;20499;-80
2022/08/28 11:09:49;;;;;;;13.00;9.20;;;23.60;99.90;;;;;;5001587;28;20082;-80
2022/08/28 11:12:17;;;;;;;14.13;9.48;;;23.60;99.90;;;;;;5002558;28;20082;-79
2022/08/28 11:14:46;;;;;;;10.30;9.20;;;23.70;99.90;;;;;;5001646;28;20257;-79
2022/08/28 11:17:26;;;;;;;15.13;11.77;;;23.70;99.90;;;;;;5000288;28;20137;-76
2022/08/28 11:20:12;;;;;;;11.43;10.00;;;23.60;99.90;;;;;;4999703;28;20076;-76
2022/08/28 11:22:51;;;;;;;10.45;9.00;;;23.60;99.90;;;;;;5000991;28;20043;-77
2022/08/28 11:25:33;;;;;;;11.82;8.30;;;23.60;99.90;;;;;;4998995;28;20085;-79
2022/08/28 11:28:24;;;;;;;12.18;8.60;;;23.40;99.90;;;;;;5004224;28;20527;-79
2022/08/28 11:30:59;;;;;;;10.98;9.30;;;23.30;99.90;;;;;;5004794;28;20519;-79
2022/08/28 11:33:47;;;;;;;12.13;8.38;;;23.20;99.90;;;;;;5000967;28;20128;-79
2022/08/28 11:36:17;;;;;;;12.73;7.85;;;23.30;99.90;;;;;;5004805;28;20081;-78
2022/08/28 11:38:43;;;;;;;14.18;8.27;;;23.30;99.90;;;;;;5004960;28;20078;-79
2022/08/28 11:41:13;;;;;;;11.75;8.60;;;23.30;99.90;;;;;;4991694;28;20078;-77
2022/08/28 11:43:42;;;;;;;8.98;8.02;;;23.40;99.90;;;;;;4991565;28;20081;-78
2022/08/28 11:46:23;;;;;;;8.83;7.63;;;23.50;99.90;;;;;;4998157;28;20085;-79
2022/08/28 11:48:53;;;;;;;9.95;8.43;;;23.50;99.90;;;;;;4997342;28;20058;-78
2022/08/28 11:51:48;;;;;;;12.40;7.57;;;23.50;99.90;;;;;;4998219;28;20061;-80
2022/08/28 11:54:26;;;;;;;9.73;7.70;;;23.40;99.90;;;;;;5007195;28;20551;-79
2022/08/28 11:57:04;;;;;;;8.52;6.78;;;23.40;99.90;;;;;;5007068;28;20137;-78
2022/08/28 11:59:42;;;;;;;8.55;7.53;;;23.40;99.90;;;;;;5005564;28;20089;-77
2022/08/28 12:02:39;;;;;;;15.15;7.82;;;23.40;99.90;;;;;;5004703;28;20567;-77
2022/08/28 12:05:29;;;;;;;7.78;6.95;;;23.50;99.90;;;;;;5004141;28;20049;-79
2022/08/28 12:08:01;;;;;;;8.25;7.43;;;23.50;99.90;;;;;;4999294;28;20124;-78
2022/08/28 12:10:29;;;;;;;7.90;7.10;;;23.60;99.90;;;;;;4999855;28;20070;-77
2022/08/28 12:13:02;;;;;;;8.85;6.93;;;23.70;99.90;;;;;;5006997;28;20046;-79
2022/08/28 12:15:29;;;;;;;10.40;7.22;;;23.70;99.90;;;;;;5001668;28;20047;-78
2022/08/28 12:18:01;;;;;;;7.72;6.82;;;23.80;99.90;;;;;;5007062;28;20479;-80
2022/08/28 12:20:36;;;;;;;8.40;6.53;;;23.90;99.90;;;;;;5010391;28;20049;-78
2022/08/28 12:23:22;;;;;;;7.65;6.55;;;24.00;99.90;;;;;;4997106;28;20141;-79
2022/08/28 12:26:01;;;;;;;7.18;6.47;;;24.00;99.90;;;;;;5008852;28;20054;-78
2022/08/28 12:28:37;;;;;;;7.85;6.18;;;24.10;99.90;;;;;;4996347;28;20322;-78
2022/08/28 12:31:04;;;;;;;6.82;6.20;;;24.10;99.90;;;;;;4997175;28;20504;-76
2022/08/28 12:33:46;;;;;;;8.98;7.07;;;24.10;99.90;;;;;;4996576;28;20053;-76
2022/08/28 12:36:16;;;;;;;7.07;5.97;;;24.10;99.90;;;;;;4996039;28;20060;-78
2022/08/28 12:38:49;;;;;;;7.82;5.90;;;24.10;99.90;;;;;;4992544;28;20089;-79
2022/08/28 12:41:17;;;;;;;9.77;6.38;;;24.20;99.90;;;;;;5009620;28;20050;-78
2022/08/28 12:43:47;;;;;;;;;;;24.10;99.90;;;;;;5012739;28;20046;-79
2022/08/28 12:46:20;;;;;;;6.60;5.75;;;24.10;99.90;;;;;;4994161;28;19961;-77
2022/08/28 12:48:54;;;;;;;7.07;6.10;;;24.20;99.90;;;;;;4993699;28;20061;-79
2022/08/28 12:51:31;;;;;;;7.75;5.47;;;24.10;99.90;;;;;;5011195;28;20081;-78
2022/08/28 12:54:03;;;;;;;9.13;6.05;;;24.20;99.90;;;;;;4998491;28;20078;-78
2022/08/28 12:56:37;;;;;;;6.53;5.93;;;24.20;99.90;;;;;;4994071;28;20156;-78
2022/08/28 12:59:35;;;;;;;9.50;5.82;;;24.30;99.90;;;;;;5004736;28;20100;-78
2022/08/28 13:02:08;;;;;;;7.15;5.75;;;24.30;99.90;;;;;;4993871;28;20475;-77
2022/08/28 13:04:44;;;;;;;7.53;6.47;;;24.40;99.90;;;;;;4993797;28;20487;-78